createdAt,value
2022-08-03T00:01:01.753Z,18
2022-08-03T00:02:18.059Z,17.9
2022-08-03T00:03:34.334Z,18
2022-08-03T00:04:50.643Z,18
2022-08-03T00:06:06.931Z,18.1
2022-08-03T00:07:23.235Z,18.1
2022-08-03T00:08:38.553Z,18.2
2022-08-03T00:09:53.848Z,18.1
2022-08-03T00:11:10.156Z,18.2
2022-08-03T00:12:26.450Z,18.1
2022-08-03T00:13:42.727Z,18.1
2022-08-03T00:14:59.024Z,18
2022-08-03T00:16:15.323Z,17.9
2022-08-03T00:17:31.622Z,17.8
2022-08-03T00:18:47.909Z,17.8
2022-08-03T00:20:04.205Z,17.8
2022-08-03T00:21:20.506Z,17.8
2022-08-03T00:22:36.804Z,17.8
2022-08-03T00:23:53.084Z,17.8
2022-08-03T00:25:09.388Z,17.8
2022-08-03T00:26:24.702Z,17.8
2022-08-03T00:27:40.988Z,17.8
2022-08-03T00:28:57.283Z,17.8
2022-08-03T00:30:13.568Z,17.8
2022-08-03T00:31:29.878Z,17.8
2022-08-03T00:32:46.159Z,17.8
2022-08-03T00:34:02.469Z,17.8
2022-08-03T00:35:17.771Z,17.8
2022-08-03T00:36:33.091Z,17.8
2022-08-03T00:37:48.395Z,17.8
2022-08-03T00:39:03.716Z,17.7
2022-08-03T00:40:20.010Z,17.8
2022-08-03T00:41:36.304Z,17.8
2022-08-03T00:42:52.590Z,17.7
2022-08-03T00:44:08.899Z,17.7
2022-08-03T00:45:25.176Z,17.7
2022-08-03T00:46:41.488Z,17.6
2022-08-03T00:47:57.781Z,17.5
2022-08-03T00:49:14.075Z,17.5
2022-08-03T00:50:30.354Z,17.3
2022-08-03T00:51:46.659Z,17.2
2022-08-03T00:53:02.950Z,17.1
2022-08-03T00:54:19.242Z,17.1
2022-08-03T00:55:34.560Z,17
2022-08-03T00:56:50.843Z,17
2022-08-03T00:58:07.153Z,17
2022-08-03T00:59:23.433Z,17
2022-08-03T01:00:39.735Z,17
2022-08-03T01:01:56.033Z,17
2022-08-03T01:03:12.311Z,17.1
2022-08-03T01:04:27.646Z,17.1
2022-08-03T01:05:42.944Z,17.1
2022-08-03T01:06:58.257Z,17.1
2022-08-03T01:08:13.579Z,17.1
2022-08-03T01:09:29.874Z,17.1
2022-08-03T01:10:46.163Z,17.1
2022-08-03T01:12:02.464Z,17
2022-08-03T01:13:18.738Z,17
2022-08-03T01:14:35.038Z,16.9
2022-08-03T01:15:51.340Z,16.9
2022-08-03T01:17:07.636Z,16.9
2022-08-03T01:18:23.927Z,16.9
2022-08-03T01:19:40.208Z,16.8
2022-08-03T01:20:56.505Z,16.8
2022-08-03T01:22:12.813Z,16.8
2022-08-03T01:23:29.105Z,16.8
2022-08-03T01:24:44.400Z,16.8
2022-08-03T01:26:00.704Z,16.8
2022-08-03T01:27:16.992Z,16.9
2022-08-03T01:28:33.303Z,16.8
2022-08-03T01:29:49.579Z,16.9
2022-08-03T01:31:05.883Z,16.8
2022-08-03T01:32:22.174Z,16.8
2022-08-03T01:33:37.490Z,16.8
2022-08-03T01:34:52.787Z,16.8
2022-08-03T01:36:09.098Z,16.9
2022-08-03T01:37:25.380Z,16.9
2022-08-03T01:38:41.678Z,16.9
2022-08-03T01:39:57.971Z,16.9
2022-08-03T01:41:14.265Z,16.8
2022-08-03T01:42:30.549Z,16.7
2022-08-03T01:43:46.844Z,16.7
2022-08-03T01:45:03.143Z,16.6
2022-08-03T01:46:19.446Z,16.5
2022-08-03T01:47:35.736Z,16.5
2022-08-03T01:48:52.016Z,16.5
2022-08-03T01:50:08.320Z,16.4
2022-08-03T01:51:23.627Z,16.4
2022-08-03T01:52:39.917Z,16.4
2022-08-03T01:53:56.216Z,16.5
2022-08-03T01:55:12.505Z,16.5
2022-08-03T01:56:28.796Z,16.5
2022-08-03T01:57:45.098Z,16.5
2022-08-03T01:59:01.384Z,16.5
2022-08-03T02:00:16.695Z,16.5
2022-08-03T02:01:32.003Z,16.5
2022-08-03T02:02:47.332Z,16.4
2022-08-03T02:04:02.629Z,16.4
2022-08-03T02:05:17.946Z,16.5
2022-08-03T02:06:33.253Z,16.4
2022-08-03T02:07:49.553Z,16.4
2022-08-03T02:09:04.880Z,16.4
2022-08-03T02:10:20.181Z,16.5
2022-08-03T02:11:36.479Z,16.5
2022-08-03T02:12:52.764Z,16.5
2022-08-03T02:14:09.062Z,16.5
2022-08-03T02:15:25.362Z,16.5
2022-08-03T02:16:41.648Z,16.6
2022-08-03T02:17:57.941Z,16.6
2022-08-03T02:19:14.238Z,16.6
2022-08-03T02:20:30.520Z,16.7
2022-08-03T02:21:46.827Z,16.7
2022-08-03T02:23:03.113Z,16.7
2022-08-03T02:24:19.413Z,16.7
2022-08-03T02:25:35.713Z,16.7
2022-08-03T02:26:51.014Z,16.8
2022-08-03T02:28:07.316Z,16.8
2022-08-03T02:29:23.594Z,16.8
2022-08-03T02:30:39.901Z,16.8
2022-08-03T02:31:56.181Z,16.7
2022-08-03T02:33:12.491Z,16.6
2022-08-03T02:34:28.768Z,16.6
2022-08-03T02:35:44.099Z,16.6
2022-08-03T02:36:59.408Z,16.6
2022-08-03T02:38:15.692Z,16.6
2022-08-03T02:39:31.004Z,16.6
2022-08-03T02:40:46.316Z,16.6
2022-08-03T02:42:02.606Z,16.6
2022-08-03T02:43:18.897Z,16.6
2022-08-03T02:44:35.194Z,16.6
2022-08-03T02:45:51.491Z,16.6
2022-08-03T02:47:07.789Z,16.6
2022-08-03T02:48:24.090Z,16.6
2022-08-03T02:50:56.680Z,16.6
2022-08-03T02:52:12.967Z,16.5
2022-08-03T02:53:29.265Z,16.5
2022-08-03T02:54:45.557Z,16.4
2022-08-03T02:56:01.839Z,16.4
2022-08-03T02:57:17.162Z,16.4
2022-08-03T02:58:33.454Z,16.3
2022-08-03T02:59:49.751Z,16.3
2022-08-03T03:01:06.050Z,16.2
2022-08-03T03:02:22.335Z,16.2
2022-08-03T03:03:38.626Z,16.2
2022-08-03T03:04:54.928Z,16.2
2022-08-03T03:06:11.152Z,16.2
2022-08-03T03:07:27.460Z,16.2
2022-08-03T03:08:42.731Z,16.2
2022-08-03T03:09:57.985Z,16.2
2022-08-03T03:11:14.356Z,16.2
2022-08-03T03:12:29.683Z,16.1
2022-08-03T03:13:45.971Z,16.1
2022-08-03T03:15:02.270Z,16.2
2022-08-03T03:16:18.513Z,16.1
2022-08-03T03:17:34.802Z,16.1
2022-08-03T03:18:51.067Z,16.1
2022-08-03T03:20:07.305Z,16.1
2022-08-03T03:21:23.544Z,16.1
2022-08-03T03:22:39.778Z,16.2
2022-08-03T03:23:56.028Z,16.2
2022-08-03T03:25:12.249Z,16.2
2022-08-03T03:26:28.491Z,16.1
2022-08-03T03:27:44.733Z,16.1
2022-08-03T03:28:59.986Z,16.1
2022-08-03T03:30:16.238Z,16.1
2022-08-03T03:31:32.478Z,16.2
2022-08-03T03:32:48.713Z,16.2
2022-08-03T03:34:04.944Z,16.2
2022-08-03T03:35:21.186Z,16.2
2022-08-03T03:36:37.439Z,16.2
2022-08-03T03:37:52.707Z,16.1
2022-08-03T03:39:07.948Z,16.1
2022-08-03T03:40:24.191Z,16.1
2022-08-03T03:41:40.440Z,16.2
2022-08-03T03:42:56.674Z,16.1
2022-08-03T03:44:12.919Z,16.2
2022-08-03T03:45:29.161Z,16.1
2022-08-03T03:46:45.409Z,16.1
2022-08-03T03:48:01.646Z,16.1
2022-08-03T03:49:17.885Z,16.2
2022-08-03T03:50:34.125Z,16.1
2022-08-03T03:51:50.363Z,16.1
2022-08-03T03:53:06.606Z,16.2
2022-08-03T03:54:22.850Z,16.2
2022-08-03T03:55:38.099Z,16.2
2022-08-03T03:56:54.330Z,16.2
2022-08-03T03:58:10.572Z,16.2
2022-08-03T03:59:26.815Z,16.2
2022-08-03T04:00:43.066Z,16.2
2022-08-03T04:01:59.293Z,16.2
2022-08-03T04:03:15.534Z,16.2
2022-08-03T04:04:30.791Z,16.2
2022-08-03T04:05:46.057Z,16.2
2022-08-03T04:07:02.296Z,16.2
2022-08-03T04:08:18.543Z,16.2
2022-08-03T04:09:34.781Z,16.2
2022-08-03T04:10:51.007Z,16.3
2022-08-03T04:12:07.263Z,16.3
2022-08-03T04:13:23.485Z,16.4
2022-08-03T04:14:39.726Z,16.4
2022-08-03T04:15:55.968Z,16.4
2022-08-03T04:17:12.223Z,16.5
2022-08-03T04:18:28.451Z,16.5
2022-08-03T04:19:44.696Z,16.5
2022-08-03T04:21:00.932Z,16.5
2022-08-03T04:22:16.190Z,16.5
2022-08-03T04:23:32.422Z,16.6
2022-08-03T04:24:48.665Z,16.6
2022-08-03T04:26:04.917Z,16.7
2022-08-03T04:27:21.147Z,16.6
2022-08-03T04:28:37.391Z,16.7
2022-08-03T04:29:53.628Z,16.7
2022-08-03T04:31:08.895Z,16.8
2022-08-03T04:32:24.150Z,16.7
2022-08-03T04:33:40.391Z,16.7
2022-08-03T04:34:56.624Z,16.8
2022-08-03T04:36:12.877Z,16.8
2022-08-03T04:37:29.101Z,16.9
2022-08-03T04:38:45.356Z,16.9
2022-08-03T04:40:01.577Z,17
2022-08-03T04:42:34.062Z,17
2022-08-03T04:43:50.305Z,17
2022-08-03T04:45:06.540Z,17.1
2022-08-03T04:46:22.789Z,17.1
2022-08-03T04:47:39.030Z,17.2
2022-08-03T04:48:54.292Z,17.2
2022-08-03T04:50:10.522Z,17.3
2022-08-03T04:51:26.757Z,17.3
2022-08-03T04:52:43.013Z,17.3
2022-08-03T04:53:59.253Z,17.4
2022-08-03T04:55:15.486Z,17.4
2022-08-03T04:56:31.729Z,17.5
2022-08-03T04:57:47.966Z,17.5
2022-08-03T04:59:03.231Z,17.6
2022-08-03T05:00:18.492Z,17.6
2022-08-03T05:01:33.740Z,17.6
2022-08-03T05:02:49.000Z,17.7
2022-08-03T05:04:04.258Z,17.7
2022-08-03T05:05:19.509Z,17.8
2022-08-03T05:06:35.757Z,17.8
2022-08-03T05:07:51.990Z,17.8
2022-08-03T05:09:08.229Z,17.9
2022-08-03T05:10:24.488Z,17.9
2022-08-03T05:11:40.713Z,18
2022-08-03T05:12:56.958Z,18
2022-08-03T05:14:13.203Z,18.1
2022-08-03T05:15:29.443Z,18.1
2022-08-03T05:18:01.926Z,18.2
2022-08-03T05:19:18.150Z,18.3
2022-08-03T05:20:34.401Z,18.3
2022-08-03T05:21:49.656Z,18.3
2022-08-03T05:23:05.885Z,18.4
2022-08-03T05:24:22.134Z,18.4
2022-08-03T05:25:38.381Z,18.4
2022-08-03T05:26:54.613Z,18.5
2022-08-03T05:28:10.864Z,18.6
2022-08-03T05:29:27.103Z,18.6
2022-08-03T05:30:43.328Z,18.7
2022-08-03T05:31:58.605Z,18.7
2022-08-03T05:33:13.847Z,18.8
2022-08-03T05:34:30.090Z,18.8
2022-08-03T05:35:46.327Z,18.8
2022-08-03T05:37:02.585Z,18.9
2022-08-03T05:38:18.810Z,18.9
2022-08-03T05:39:35.049Z,18.9
2022-08-03T05:40:51.290Z,19
2022-08-03T05:42:07.543Z,19
2022-08-03T05:43:23.787Z,19.1
2022-08-03T05:44:40.014Z,19.1
2022-08-03T05:45:56.259Z,19.2
2022-08-03T05:47:12.505Z,19.2
2022-08-03T05:48:28.740Z,19.3
2022-08-03T05:49:44.007Z,19.3
2022-08-03T05:51:00.234Z,19.4
2022-08-03T05:52:16.488Z,19.4
2022-08-03T05:53:32.724Z,19.6
2022-08-03T05:54:48.956Z,19.6
2022-08-03T05:56:05.197Z,19.7
2022-08-03T05:57:21.430Z,19.7
2022-08-03T05:58:36.705Z,19.8
2022-08-03T05:59:51.963Z,19.8
2022-08-03T06:01:07.216Z,19.9
2022-08-03T06:02:22.479Z,19.9
2022-08-03T06:03:37.730Z,20
2022-08-03T06:04:52.983Z,20.1
2022-08-03T06:06:09.224Z,20.1
2022-08-03T06:07:25.461Z,20.2
2022-08-03T06:08:41.715Z,20.2
2022-08-03T06:09:57.956Z,20.2
2022-08-03T06:11:14.181Z,20.3
2022-08-03T06:12:30.437Z,20.3
2022-08-03T06:13:46.664Z,20.4
2022-08-03T06:15:02.910Z,20.5
2022-08-03T06:16:19.151Z,20.6
2022-08-03T06:17:35.381Z,20.6
2022-08-03T06:18:51.620Z,20.7
2022-08-03T06:20:07.872Z,20.7
2022-08-03T06:21:23.120Z,20.9
2022-08-03T06:22:39.364Z,21
2022-08-03T06:23:55.613Z,21
2022-08-03T06:25:11.850Z,21
2022-08-03T06:26:28.090Z,21.1
2022-08-03T06:27:44.000Z,21.2
2022-08-03T06:29:00.563Z,21.2
2022-08-03T06:30:15.838Z,21.3
2022-08-03T06:31:31.077Z,21.3
2022-08-03T06:32:47.331Z,21.4
2022-08-03T06:34:02.576Z,21.5
2022-08-03T06:35:17.844Z,21.5
2022-08-03T06:36:34.070Z,21.6
2022-08-03T06:37:50.320Z,21.7
2022-08-03T06:39:06.557Z,21.7
2022-08-03T06:40:22.795Z,21.8
2022-08-03T06:41:39.035Z,21.9
2022-08-03T06:42:55.278Z,21.9
2022-08-03T06:44:11.517Z,22
2022-08-03T06:45:27.746Z,22.1
2022-08-03T06:46:43.993Z,22.1
2022-08-03T06:48:00.234Z,22.2
2022-08-03T06:49:16.472Z,22.3
2022-08-03T06:50:32.721Z,22.3
2022-08-03T06:51:47.971Z,22.4
2022-08-03T06:53:04.216Z,22.5
2022-08-03T06:54:20.450Z,22.5
2022-08-03T06:55:36.683Z,22.6
2022-08-03T06:56:52.922Z,22.7
2022-08-03T06:58:09.180Z,22.7
2022-08-03T06:59:25.407Z,22.8
2022-08-03T07:00:40.674Z,22.8
2022-08-03T07:01:55.922Z,22.9
2022-08-03T07:03:11.188Z,23
2022-08-03T07:04:26.451Z,23.1
2022-08-03T07:05:41.693Z,23.1
2022-08-03T07:06:56.954Z,23.2
2022-08-03T07:08:13.200Z,23.3
2022-08-03T07:09:29.430Z,23.3
2022-08-03T07:10:45.687Z,23.4
2022-08-03T07:12:01.915Z,23.5
2022-08-03T07:13:18.163Z,23.7
2022-08-03T07:14:34.394Z,23.7
2022-08-03T07:15:50.643Z,23.8
2022-08-03T07:17:06.871Z,23.8
2022-08-03T07:18:23.121Z,23.9
2022-08-03T07:19:39.351Z,24
2022-08-03T07:20:55.584Z,24
2022-08-03T07:22:11.835Z,24.1
2022-08-03T07:23:27.085Z,24.1
2022-08-03T07:24:43.316Z,24.1
2022-08-03T07:25:59.567Z,24.3
2022-08-03T07:27:15.802Z,24.3
2022-08-03T07:28:32.035Z,24.4
2022-08-03T07:29:48.272Z,24.4
2022-08-03T07:31:04.526Z,24.6
2022-08-03T07:32:19.768Z,24.7
2022-08-03T07:33:35.027Z,24.7
2022-08-03T07:34:50.295Z,24.8
2022-08-03T07:36:05.542Z,24.8
2022-08-03T07:37:21.778Z,24.9
2022-08-03T07:38:38.016Z,24.9
2022-08-03T07:39:54.266Z,25
2022-08-03T07:41:10.495Z,25.1
2022-08-03T07:42:26.732Z,25.1
2022-08-03T07:43:42.986Z,25.2
2022-08-03T07:44:59.223Z,25.2
2022-08-03T07:46:15.452Z,25.3
2022-08-03T07:47:31.696Z,25.3
2022-08-03T07:48:47.922Z,25.3
2022-08-03T07:50:04.161Z,25.3
2022-08-03T07:51:20.408Z,25.3
2022-08-03T07:52:35.660Z,25.5
2022-08-03T07:53:51.000Z,25.5
2022-08-03T07:55:08.143Z,25.5
2022-08-03T07:56:24.382Z,25.6
2022-08-03T07:57:40.629Z,25.7
2022-08-03T07:58:56.865Z,25.7
2022-08-03T08:00:13.108Z,25.7
2022-08-03T08:01:28.358Z,25.8
2022-08-03T08:02:43.619Z,25.8
2022-08-03T08:03:58.871Z,25.9
2022-08-03T08:05:14.123Z,26
2022-08-03T08:06:30.371Z,26
2022-08-03T08:07:46.609Z,26.1
2022-08-03T08:09:02.838Z,26.1
2022-08-03T08:10:19.074Z,26.2
2022-08-03T08:11:35.316Z,26.3
2022-08-03T08:12:51.564Z,26.4
2022-08-03T08:14:07.786Z,26.4
2022-08-03T08:15:24.042Z,26.6
2022-08-03T08:16:40.281Z,26.6
2022-08-03T08:17:56.508Z,26.7
2022-08-03T08:19:12.755Z,26.8
2022-08-03T08:20:28.982Z,26.7
2022-08-03T08:21:44.236Z,26.7
2022-08-03T08:23:00.471Z,26.7
2022-08-03T08:24:16.710Z,26.7
2022-08-03T08:25:32.949Z,26.8
2022-08-03T08:26:49.197Z,26.9
2022-08-03T08:28:05.422Z,27
2022-08-03T08:29:21.672Z,27
2022-08-03T08:30:36.927Z,26.9
2022-08-03T08:31:52.182Z,26.9
2022-08-03T08:33:07.450Z,27
2022-08-03T08:34:22.690Z,27.1
2022-08-03T08:35:38.933Z,27.1
2022-08-03T08:36:54.202Z,27.2
2022-08-03T08:38:09.449Z,27.2
2022-08-03T08:39:25.691Z,27.2
2022-08-03T08:40:41.938Z,27.2
2022-08-03T08:41:58.175Z,27.3
2022-08-03T08:43:14.411Z,27.2
2022-08-03T08:44:30.642Z,27.2
2022-08-03T08:45:46.886Z,27.3
2022-08-03T08:47:03.124Z,27.4
2022-08-03T08:48:19.356Z,27.4
2022-08-03T08:49:35.597Z,27.5
2022-08-03T08:50:51.841Z,27.5
2022-08-03T08:52:08.070Z,27.5
2022-08-03T08:53:24.324Z,27.6
2022-08-03T08:54:39.568Z,27.7
2022-08-03T08:55:55.813Z,27.7
2022-08-03T08:57:12.042Z,27.7
2022-08-03T08:58:28.283Z,27.8
2022-08-03T08:59:44.521Z,27.8
2022-08-03T09:01:00.771Z,27.8
2022-08-03T09:02:17.012Z,27.9
2022-08-03T09:03:32.269Z,28.1
2022-08-03T09:04:47.524Z,28.2
2022-08-03T09:06:03.761Z,28.3
2022-08-03T09:07:19.026Z,28.3
2022-08-03T09:08:34.272Z,28.2
2022-08-03T09:09:50.506Z,28.3
2022-08-03T09:11:06.763Z,28.3
2022-08-03T09:12:22.992Z,28.4
2022-08-03T09:13:39.222Z,28.5
2022-08-03T09:14:55.480Z,28.5
2022-08-03T09:16:11.711Z,28.5
2022-08-03T09:17:27.946Z,28.5
2022-08-03T09:18:44.192Z,28.5
2022-08-03T09:20:00.431Z,28.5
2022-08-03T09:21:16.658Z,28.5
2022-08-03T09:22:32.907Z,28.6
2022-08-03T09:23:49.154Z,28.6
2022-08-03T09:25:04.399Z,28.7
2022-08-03T09:26:20.634Z,28.7
2022-08-03T09:27:36.878Z,28.8
2022-08-03T09:28:53.124Z,28.8
2022-08-03T09:30:09.360Z,29
2022-08-03T09:31:25.601Z,29.1
2022-08-03T09:32:41.842Z,29.2
2022-08-03T09:33:57.101Z,29.2
2022-08-03T09:35:12.343Z,29.2
2022-08-03T09:36:28.590Z,29.2
2022-08-03T09:37:44.823Z,29.1
2022-08-03T09:39:01.059Z,29.2
2022-08-03T09:40:17.299Z,29.2
2022-08-03T09:41:33.543Z,29.2
2022-08-03T09:42:49.778Z,29.2
2022-08-03T09:44:06.014Z,29.2
2022-08-03T09:45:22.256Z,29.3
2022-08-03T09:46:38.502Z,29.4
2022-08-03T09:49:10.986Z,29.5
2022-08-03T09:50:27.209Z,29.4
2022-08-03T09:51:42.468Z,29.5
2022-08-03T09:52:58.707Z,29.5
2022-08-03T09:54:14.961Z,29.6
2022-08-03T09:55:31.200Z,29.5
2022-08-03T09:56:47.423Z,29.6
2022-08-03T09:58:03.662Z,29.7
2022-08-03T09:59:19.907Z,29.5
2022-08-03T10:00:36.157Z,29.5
2022-08-03T10:01:51.420Z,29.6
2022-08-03T10:03:06.667Z,29.8
2022-08-03T10:04:21.935Z,29.8
2022-08-03T10:05:37.185Z,29.9
2022-08-03T10:06:53.417Z,30
2022-08-03T10:08:09.654Z,30.2
2022-08-03T10:09:25.891Z,30.3
2022-08-03T10:10:42.140Z,30.4
2022-08-03T10:11:58.387Z,30.4
2022-08-03T10:13:14.609Z,30.5
2022-08-03T10:14:30.868Z,30.5
2022-08-03T10:15:47.088Z,30.3
2022-08-03T10:17:03.338Z,30.2
2022-08-03T10:18:19.566Z,30.3
2022-08-03T10:19:35.819Z,30.2
2022-08-03T10:20:52.051Z,30.2
2022-08-03T10:22:07.302Z,30.3
2022-08-03T10:23:23.542Z,30.3
2022-08-03T10:24:39.795Z,30.4
2022-08-03T10:25:56.038Z,30.4
2022-08-03T10:27:12.262Z,30.2
2022-08-03T10:28:28.507Z,30.3
2022-08-03T10:29:44.759Z,30.5
2022-08-03T10:31:00.004Z,30.6
2022-08-03T10:32:15.271Z,30.8
2022-08-03T10:33:30.529Z,31
2022-08-03T10:34:45.788Z,31.2
2022-08-03T10:36:02.024Z,31.3
2022-08-03T10:37:18.263Z,31.4
2022-08-03T10:38:34.495Z,31.6
2022-08-03T10:39:50.746Z,31.5
2022-08-03T10:41:06.987Z,31.3
2022-08-03T10:42:23.219Z,31.2
2022-08-03T10:43:39.463Z,31.5
2022-08-03T10:44:55.706Z,31.7
2022-08-03T10:46:11.935Z,32
2022-08-03T10:47:28.186Z,32.2
2022-08-03T10:48:44.427Z,32.1
2022-08-03T10:50:00.655Z,32
2022-08-03T10:51:15.919Z,31.8
2022-08-03T10:52:32.153Z,31.5
2022-08-03T10:53:47.418Z,31.6
2022-08-03T10:55:02.688Z,31.8
2022-08-03T10:56:18.913Z,31.9
2022-08-03T10:57:35.151Z,32
2022-08-03T10:58:51.408Z,32
2022-08-03T11:00:07.637Z,32.1
2022-08-03T11:01:23.877Z,32.2
2022-08-03T11:02:40.117Z,32.2
2022-08-03T11:03:56.353Z,32.4
2022-08-03T11:05:12.609Z,32.4
2022-08-03T11:06:28.839Z,32.5
2022-08-03T11:07:45.087Z,32.8
2022-08-03T11:09:01.329Z,32.8
2022-08-03T11:10:17.553Z,32.8
2022-08-03T11:11:32.821Z,32.9
2022-08-03T11:12:49.057Z,33
2022-08-03T11:14:05.304Z,33.1
2022-08-03T11:15:21.541Z,33.2
2022-08-03T11:16:37.770Z,33.3
2022-08-03T11:17:54.010Z,33.5
2022-08-03T11:19:10.245Z,33.6
2022-08-03T11:20:25.508Z,33.4
2022-08-03T11:21:40.775Z,33.4
2022-08-03T11:22:56.040Z,33.1
2022-08-03T11:24:11.293Z,33.1
2022-08-03T11:25:27.526Z,33.2
2022-08-03T11:26:43.775Z,33.1
2022-08-03T11:28:00.004Z,33.4
2022-08-03T11:29:16.244Z,33.7
2022-08-03T11:30:32.490Z,34
2022-08-03T11:31:48.738Z,34.3
2022-08-03T11:33:04.971Z,34.1
2022-08-03T11:34:21.208Z,34.2
2022-08-03T11:35:37.463Z,34.2
2022-08-03T11:36:53.695Z,34.2
2022-08-03T11:38:09.926Z,34.2
2022-08-03T11:39:26.172Z,34.3
2022-08-03T11:40:41.433Z,34.1
2022-08-03T11:41:57.674Z,33.9
2022-08-03T11:43:13.910Z,33.8
2022-08-03T11:44:30.146Z,33.9
2022-08-03T11:45:46.377Z,33.7
2022-08-03T11:47:02.625Z,33.8
2022-08-03T11:48:18.856Z,34
2022-08-03T11:49:34.121Z,34.3
2022-08-03T11:50:49.371Z,34.6
2022-08-03T11:52:05.627Z,34.8
2022-08-03T11:53:21.855Z,35
2022-08-03T11:54:38.093Z,35.4
2022-08-03T11:55:54.336Z,35.7
2022-08-03T11:57:10.569Z,35.8
2022-08-03T11:58:26.815Z,35.8
2022-08-03T11:59:43.046Z,35.8
2022-08-03T12:00:59.295Z,35.4
2022-08-03T12:02:15.528Z,35.2
2022-08-03T12:03:31.766Z,35.1
2022-08-03T12:04:48.003Z,34.5
2022-08-03T12:06:04.251Z,34.1
2022-08-03T12:07:19.504Z,33.9
2022-08-03T12:08:35.756Z,34.2
2022-08-03T12:09:51.989Z,34.6
2022-08-03T12:11:08.234Z,34.8
2022-08-03T12:12:24.478Z,35
2022-08-03T12:13:40.698Z,35
2022-08-03T12:14:56.955Z,35.2
2022-08-03T12:16:12.199Z,35.4
2022-08-03T12:17:27.458Z,35.5
2022-08-03T12:18:42.726Z,35.4
2022-08-03T12:19:57.985Z,35.1
2022-08-03T12:21:14.216Z,35
2022-08-03T12:22:30.462Z,34.9
2022-08-03T12:23:46.689Z,34.6
2022-08-03T12:25:02.934Z,34.5
2022-08-03T12:26:19.174Z,34.5
2022-08-03T12:27:35.419Z,34.3
2022-08-03T12:28:51.660Z,33.9
2022-08-03T12:30:07.892Z,33.7
2022-08-03T12:31:24.125Z,33.4
2022-08-03T12:32:40.363Z,33.7
2022-08-03T12:33:56.619Z,34
2022-08-03T12:35:12.845Z,34.2
2022-08-03T12:36:28.114Z,34.5
2022-08-03T12:37:44.355Z,34.7
2022-08-03T12:39:00.586Z,35
2022-08-03T12:40:16.825Z,35.1
2022-08-03T12:41:33.071Z,35.2
2022-08-03T12:42:49.302Z,35.2
2022-08-03T12:44:05.541Z,35.5
2022-08-03T12:45:20.812Z,35.5
2022-08-03T12:46:36.069Z,35.7
2022-08-03T12:47:51.324Z,35.7
2022-08-03T12:49:06.569Z,35.9
2022-08-03T12:50:21.847Z,36.1
2022-08-03T12:51:37.099Z,36.2
2022-08-03T12:52:52.356Z,36.2
2022-08-03T12:54:07.603Z,36.3
2022-08-03T12:55:23.845Z,36.2
2022-08-03T12:56:40.081Z,35.3
2022-08-03T12:57:56.327Z,35
2022-08-03T12:59:12.564Z,34.4
2022-08-03T13:00:28.807Z,34.7
2022-08-03T13:01:45.048Z,34.9
2022-08-03T13:03:01.291Z,35.1
2022-08-03T13:04:17.527Z,35
2022-08-03T13:05:33.774Z,35.1
2022-08-03T13:06:50.008Z,35
2022-08-03T13:08:06.241Z,35
2022-08-03T13:09:22.491Z,35.1
2022-08-03T13:10:37.732Z,35.3
2022-08-03T13:13:10.209Z,35.3
2022-08-03T13:14:26.461Z,35.6
2022-08-03T13:15:42.705Z,35.6
2022-08-03T13:16:58.944Z,35.3
2022-08-03T13:18:15.173Z,35.1
2022-08-03T13:19:31.419Z,35.3
2022-08-03T13:20:46.674Z,35.5
2022-08-03T13:22:01.941Z,35.3
2022-08-03T13:23:17.196Z,35.4
2022-08-03T13:24:32.447Z,35.7
2022-08-03T13:25:48.700Z,35.4
2022-08-03T13:27:04.929Z,35.3
2022-08-03T13:28:21.161Z,35.6
2022-08-03T13:29:37.406Z,35.9
2022-08-03T13:30:53.646Z,36.2
2022-08-03T13:32:09.889Z,36.3
2022-08-03T13:33:26.131Z,36.4
2022-08-03T13:34:42.371Z,36.6
2022-08-03T13:35:58.605Z,36.7
2022-08-03T13:37:14.849Z,36.8
2022-08-03T13:38:31.085Z,37
2022-08-03T13:39:47.316Z,37.1
2022-08-03T13:41:02.582Z,37.2
2022-08-03T13:42:18.817Z,37.4
2022-08-03T13:43:35.069Z,36.9
2022-08-03T13:44:51.304Z,36.7
2022-08-03T13:46:07.543Z,36.4
2022-08-03T13:47:23.789Z,36.1
2022-08-03T13:48:40.011Z,36.1
2022-08-03T13:49:55.280Z,36.2
2022-08-03T13:51:10.547Z,36.1
2022-08-03T13:52:26.788Z,35.5
2022-08-03T13:53:43.019Z,35.7
2022-08-03T13:54:59.262Z,36
2022-08-03T13:56:15.499Z,35.9
2022-08-03T13:57:31.735Z,35.5
2022-08-03T13:58:47.968Z,35.6
2022-08-03T14:00:04.208Z,35.4
2022-08-03T14:01:20.460Z,35.5
2022-08-03T14:02:36.699Z,35.6
2022-08-03T14:03:52.948Z,35.9
2022-08-03T14:05:09.168Z,36.3
2022-08-03T14:06:25.415Z,36.3
2022-08-03T14:07:40.673Z,36.3
2022-08-03T14:08:56.000Z,36.5
2022-08-03T14:10:13.163Z,36.6
2022-08-03T14:11:29.390Z,36.6
2022-08-03T14:12:45.625Z,36.6
2022-08-03T14:14:01.872Z,36.7
2022-08-03T14:15:18.114Z,36.1
2022-08-03T14:16:33.365Z,35.8
2022-08-03T14:17:48.621Z,35.7
2022-08-03T14:19:03.890Z,36
2022-08-03T14:20:19.139Z,36.1
2022-08-03T14:21:35.000Z,36.3
2022-08-03T14:22:51.620Z,36.4
2022-08-03T14:24:07.867Z,36.6
2022-08-03T14:25:24.101Z,36.4
2022-08-03T14:26:40.339Z,36.4
2022-08-03T14:27:56.575Z,36.5
2022-08-03T14:29:12.832Z,36.4
2022-08-03T14:30:29.071Z,36.6
2022-08-03T14:31:45.300Z,36.7
2022-08-03T14:33:01.537Z,36.6
2022-08-03T14:34:17.784Z,36.6
2022-08-03T14:35:34.031Z,36.6
2022-08-03T14:36:49.276Z,36.6
2022-08-03T14:38:05.521Z,36.5
2022-08-03T14:39:21.752Z,36.3
2022-08-03T14:40:37.995Z,36.3
2022-08-03T14:41:54.243Z,36.2
2022-08-03T14:43:10.474Z,35.8
2022-08-03T14:44:26.718Z,36
2022-08-03T14:45:41.979Z,36.3
2022-08-03T14:46:57.231Z,36.7
2022-08-03T14:48:12.498Z,36.9
2022-08-03T14:49:27.750Z,37.3
2022-08-03T14:50:43.990Z,37.1
2022-08-03T14:52:00.232Z,37.1
2022-08-03T14:53:16.473Z,37.4
2022-08-03T14:54:32.715Z,37.3
2022-08-03T14:55:48.960Z,36.9
2022-08-03T14:57:05.202Z,36.6
2022-08-03T14:58:21.441Z,36.7
2022-08-03T14:59:37.687Z,36.8
2022-08-03T15:00:53.924Z,36.5
2022-08-03T15:02:10.149Z,36.4
2022-08-03T15:03:26.387Z,36.6
2022-08-03T15:04:42.643Z,36.8
2022-08-03T15:05:57.883Z,37.1
2022-08-03T15:07:14.133Z,37.4
2022-08-03T15:08:30.370Z,36.6
2022-08-03T15:09:46.619Z,36.4
2022-08-03T15:11:02.862Z,36.6
2022-08-03T15:12:19.086Z,36.8
2022-08-03T15:13:35.325Z,37.2
2022-08-03T15:14:50.587Z,37.6
2022-08-03T15:16:05.862Z,38
2022-08-03T15:17:21.105Z,38.2
2022-08-03T15:18:36.361Z,38.2
2022-08-03T15:19:51.634Z,38
2022-08-03T15:21:06.883Z,37.6
2022-08-03T15:22:23.125Z,37.7
2022-08-03T15:23:39.377Z,37.6
2022-08-03T15:24:55.618Z,37.6
2022-08-03T15:26:11.859Z,37.4
2022-08-03T15:27:28.090Z,37.4
2022-08-03T15:28:44.324Z,37.5
2022-08-03T15:30:00.577Z,37.6
2022-08-03T15:31:16.806Z,37.7
2022-08-03T15:32:33.049Z,37.7
2022-08-03T15:33:49.289Z,37.8
2022-08-03T15:35:05.531Z,37.9
2022-08-03T15:36:21.782Z,37.6
2022-08-03T15:37:37.027Z,36.7
2022-08-03T15:38:53.267Z,36.5
2022-08-03T15:40:09.502Z,36.5
2022-08-03T15:41:25.755Z,36.1
2022-08-03T15:42:41.990Z,35.8
2022-08-03T15:43:58.233Z,35.7
2022-08-03T15:45:14.478Z,35.8
2022-08-03T15:46:29.728Z,35.8
2022-08-03T15:47:44.981Z,35.8
2022-08-03T15:49:01.222Z,35.7
2022-08-03T15:50:16.487Z,35.7
2022-08-03T15:51:31.755Z,36
2022-08-03T15:52:47.997Z,36.1
2022-08-03T15:54:04.232Z,36.4
2022-08-03T15:55:20.466Z,36.5
2022-08-03T15:56:36.711Z,35.9
2022-08-03T15:57:52.945Z,36.1
2022-08-03T15:59:09.192Z,36.5
2022-08-03T16:00:25.425Z,36.5
2022-08-03T16:01:41.669Z,36.6
2022-08-03T16:02:57.910Z,36.6
2022-08-03T16:04:14.155Z,36.5
2022-08-03T16:05:30.379Z,36.4
2022-08-03T16:06:46.623Z,36.2
2022-08-03T16:08:01.895Z,36
2022-08-03T16:09:18.135Z,36.1
2022-08-03T16:10:34.369Z,36.2
2022-08-03T16:11:50.616Z,36.4
2022-08-03T16:13:06.000Z,36.3
2022-08-03T16:14:23.082Z,36.4
2022-08-03T16:15:39.328Z,36.7
2022-08-03T16:16:54.593Z,36.4
2022-08-03T16:18:09.852Z,36.2
2022-08-03T16:19:26.085Z,35.9
2022-08-03T16:20:42.317Z,35.7
2022-08-03T16:21:57.591Z,35.3
2022-08-03T16:23:13.833Z,35.3
2022-08-03T16:24:30.064Z,35.3
2022-08-03T16:25:46.305Z,35.3
2022-08-03T16:27:02.551Z,35.7
2022-08-03T16:28:18.778Z,36
2022-08-03T16:29:35.025Z,36.1
2022-08-03T16:30:51.273Z,36
2022-08-03T16:32:07.511Z,35.8
2022-08-03T16:33:23.752Z,35.5
2022-08-03T16:34:39.990Z,35.3
2022-08-03T16:35:56.219Z,35.1
2022-08-03T16:37:12.457Z,34.8
2022-08-03T16:38:27.726Z,34.7
2022-08-03T16:39:43.960Z,34.6
2022-08-03T16:41:00.204Z,34.5
2022-08-03T16:42:16.444Z,34.6
2022-08-03T16:43:31.694Z,34.6
2022-08-03T16:44:46.951Z,34.7
2022-08-03T16:46:02.207Z,34.9
2022-08-03T16:47:17.467Z,35.3
2022-08-03T16:48:32.728Z,35.7
2022-08-03T16:49:47.966Z,35.8
2022-08-03T16:51:03.238Z,36.1
2022-08-03T16:52:18.503Z,36.5
2022-08-03T16:53:34.727Z,36.6
2022-08-03T16:54:50.966Z,36.7
2022-08-03T16:56:07.209Z,36.9
2022-08-03T16:57:23.452Z,37
2022-08-03T16:58:39.689Z,36.8
2022-08-03T16:59:55.925Z,36.5
2022-08-03T17:01:12.171Z,36.4
2022-08-03T17:02:28.417Z,36.6
2022-08-03T17:03:44.646Z,36.7